Portada
METAR-TAF:

METAR-TAF

Aeropuertos :

Biak, Indonesia

latitud: 01-11S, longitud: 136-07E, altitud: 11 m

Observación

El informe se hizo hace 47 minutos, a las 08:30 UTC
Viento 8 kt del norte-noroeste, variando entre sur-sureste y norte-noroeste
Temperatura 25°C
Humedad 94%
Presión 1011 hPa
Visibilidad: 9000 m
Nubes dispersas a una altura de 1500 ft
Cielo nuboso a una altura de 10000 ft

METAR: WABB 230830Z 34008KT 160V340 9000 SCT015 BKN100 25/24 Q1011 NOSIG

Hora: 16:17 (09:17 UTC)

Pronóstico

El informe se hizo hace 4 horas y 17 minutos, a las 05:00 UTC
Pronóstico válido del 23 a las 06 UTC al 24 a las 12 UTC
Viento 4 kt del norte-noroeste
Visibilidad: 9000 m
Nubes dispersas a una altura de 1500 ft
lluvia
Evolucionando progresivamente
del 23 a las 08 UTC al 23 a las 11 UTC
Viento 2 kt del oeste

TAF: WABB 230500Z 2306/2412 34004KT 9000 RA SCT015 BECMG 2308/2311 26002KT

Observaciones y pronósticos meteorológicos de más de 4000 aeropuertos (mensajes METAR y TAF).

Los puntos amarillos y rojos representan las estaciones disponibles.

Ponga el ratón en el punto deseado para ver el nombre de la estación.

Haga clic para ver las observaciones y los pronósticos meteorológicos.

Para cambiar el mapa : haga clic en los botones verdes con una cruz de color negro para hacer un zoom, en el botón verde con un guión para alejar o en las flechas verdes para mapas adyacentes.


METAR-TAF: